createdAt,value
2022-09-06T00:00:34.370Z,17.50
2022-09-06T00:04:16.281Z,17.40
2022-09-06T00:08:01.902Z,17.40
2022-09-06T00:12:04.796Z,17.40
2022-09-06T00:15:46.925Z,17.40
2022-09-06T00:19:29.903Z,17.40
2022-09-06T00:23:11.670Z,17.40
2022-09-06T00:26:53.413Z,17.40
2022-09-06T00:30:35.359Z,17.30
2022-09-06T00:34:17.141Z,17.30
2022-09-06T00:38:01.955Z,17.30
2022-09-06T00:42:02.771Z,17.30
2022-09-06T00:45:44.530Z,17.30
2022-09-06T00:49:30.673Z,17.30
2022-09-06T00:53:12.406Z,17.30
2022-09-06T00:56:54.246Z,17.30
2022-09-06T01:00:36.554Z,17.20
2022-09-06T01:04:18.311Z,17.30
2022-09-06T01:08:06.288Z,17.30
2022-09-06T01:12:16.389Z,17.30
2022-09-06T01:16:27.666Z,17.30
2022-09-06T01:20:30.210Z,17.30
2022-09-06T01:24:14.773Z,17.30
2022-09-06T01:28:14.751Z,17.30
2022-09-06T01:32:04.935Z,17.30
2022-09-06T01:35:53.338Z,17.30
2022-09-06T01:39:38.052Z,17.40
2022-09-06T01:43:27.206Z,17.40
2022-09-06T01:47:17.141Z,17.40
2022-09-06T01:51:07.200Z,17.40
2022-09-06T01:55:27.235Z,17.40
2022-09-06T01:59:37.911Z,17.40
2022-09-06T02:03:30.847Z,17.30
2022-09-06T02:07:20.735Z,17.30
2022-09-06T02:11:03.977Z,17.30
2022-09-06T02:14:50.759Z,17.20
2022-09-06T02:18:44.127Z,17.20
2022-09-06T02:22:29.390Z,17.20
2022-09-06T02:26:15.649Z,17.30
2022-09-06T02:29:58.760Z,17.20
2022-09-06T02:33:40.807Z,17.30
2022-09-06T02:37:24.168Z,17.30
2022-09-06T02:41:07.540Z,17.30
2022-09-06T02:44:49.313Z,17.30
2022-09-06T02:48:31.121Z,17.30
2022-09-06T02:52:14.080Z,17.40
2022-09-06T02:55:56.986Z,17.40
2022-09-06T02:59:39.858Z,17.40
2022-09-06T03:03:22.078Z,17.50
2022-09-06T03:07:03.962Z,17.50
2022-09-06T03:10:53.250Z,17.50
2022-09-06T03:14:36.169Z,17.60
2022-09-06T03:18:18.016Z,17.60
2022-09-06T03:22:00.789Z,17.60
2022-09-06T03:25:43.171Z,17.60
2022-09-06T03:29:26.228Z,17.70
2022-09-06T03:33:08.003Z,17.70
2022-09-06T03:36:49.802Z,17.70
2022-09-06T03:40:33.867Z,17.70
2022-09-06T03:44:15.621Z,17.70
2022-09-06T03:47:57.421Z,17.80
2022-09-06T03:51:40.434Z,17.80
2022-09-06T03:55:22.217Z,17.80
2022-09-06T03:59:06.174Z,17.80
2022-09-06T04:02:48.066Z,17.80
2022-09-06T04:06:29.907Z,17.80
2022-09-06T04:10:32.136Z,17.90
2022-09-06T04:14:13.938Z,17.90
2022-09-06T04:17:55.784Z,17.90
2022-09-06T04:21:38.925Z,17.90
2022-09-06T04:25:20.696Z,17.90
2022-09-06T04:29:02.441Z,17.90
2022-09-06T04:32:44.205Z,17.90
2022-09-06T04:36:26.037Z,17.90
2022-09-06T04:40:10.534Z,17.90
2022-09-06T04:43:52.381Z,17.90
2022-09-06T04:47:34.338Z,17.80
2022-09-06T04:51:16.277Z,17.80
2022-09-06T04:54:58.015Z,17.80
2022-09-06T04:58:39.805Z,17.70
2022-09-06T05:02:21.856Z,17.70
2022-09-06T05:06:11.409Z,17.70
2022-09-06T05:09:54.478Z,17.70
2022-09-06T05:13:36.249Z,17.70
2022-09-06T05:17:18.095Z,17.70
2022-09-06T05:21:02.087Z,17.70
2022-09-06T05:24:43.932Z,17.70
2022-09-06T05:28:25.805Z,17.80
2022-09-06T05:32:07.971Z,17.80
2022-09-06T05:35:49.907Z,17.70
2022-09-06T05:39:32.913Z,17.80
2022-09-06T05:43:14.713Z,17.80
2022-09-06T05:46:56.473Z,17.80
2022-09-06T05:50:40.435Z,17.80
2022-09-06T05:54:22.303Z,17.80
2022-09-06T05:58:04.091Z,17.80
2022-09-06T06:01:51.755Z,17.80
2022-09-06T06:05:33.562Z,17.70
2022-09-06T06:09:34.289Z,17.80
2022-09-06T06:13:16.038Z,17.80
2022-09-06T06:16:57.895Z,17.80
2022-09-06T06:20:40.941Z,17.80
2022-09-06T06:24:22.894Z,17.80
2022-09-06T06:28:04.675Z,17.80
2022-09-06T06:32:26.511Z,17.90
2022-09-06T06:36:14.458Z,18.00
2022-09-06T06:39:59.490Z,18.00
2022-09-06T06:43:41.450Z,18.00
2022-09-06T06:47:23.222Z,18.00
2022-09-06T06:51:07.979Z,18.10
2022-09-06T06:54:50.133Z,18.10
2022-09-06T06:58:31.937Z,18.10
2022-09-06T07:02:15.782Z,18.20
2022-09-06T07:06:13.323Z,18.20
2022-09-06T07:13:57.611Z,18.40
2022-09-06T07:17:39.773Z,18.40
2022-09-06T07:21:43.147Z,18.50
2022-09-06T07:25:25.669Z,18.50
2022-09-06T07:29:08.818Z,18.50
2022-09-06T07:32:50.554Z,18.60
2022-09-06T07:36:33.114Z,18.60
2022-09-06T07:40:17.048Z,18.60
2022-09-06T07:43:58.836Z,18.70
2022-09-06T07:51:39.239Z,18.80
2022-09-06T07:55:21.034Z,18.90
2022-09-06T07:59:02.851Z,19.00
2022-09-06T08:02:44.607Z,19.10
2022-09-06T08:06:27.514Z,19.20
2022-09-06T08:10:10.704Z,19.30
2022-09-06T08:13:54.691Z,19.50
2022-09-06T08:17:36.519Z,19.60
2022-09-06T08:21:18.774Z,19.70
2022-09-06T08:25:00.560Z,19.80
2022-09-06T08:28:42.366Z,19.80
2022-09-06T08:32:24.402Z,19.90
2022-09-06T08:36:06.818Z,20.00
2022-09-06T08:39:48.955Z,20.00
2022-09-06T08:43:30.732Z,20.00
2022-09-06T08:47:16.756Z,20.00
2022-09-06T08:51:23.722Z,20.10
2022-09-06T08:55:14.573Z,20.10
2022-09-06T08:59:07.229Z,20.20
2022-09-06T09:03:39.413Z,20.20
2022-09-06T09:07:27.024Z,20.30
2022-09-06T09:11:18.973Z,20.40
2022-09-06T09:15:06.870Z,20.50
2022-09-06T09:18:52.357Z,20.60
2022-09-06T09:22:34.343Z,20.70
2022-09-06T09:26:16.081Z,20.70
2022-09-06T09:34:06.589Z,20.80
2022-09-06T09:37:50.378Z,20.80
2022-09-06T09:41:38.505Z,20.80
2022-09-06T09:45:24.748Z,20.80
2022-09-06T09:49:10.578Z,20.90
2022-09-06T09:52:52.595Z,20.90
2022-09-06T09:56:39.158Z,20.90
2022-09-06T10:00:33.861Z,21.00
2022-09-06T10:04:43.926Z,21.00
2022-09-06T10:08:26.429Z,21.10
2022-09-06T10:12:13.462Z,21.30
2022-09-06T10:15:55.609Z,21.40
2022-09-06T10:19:41.442Z,21.50
2022-09-06T10:28:24.584Z,21.70
2022-09-06T10:32:31.033Z,21.80
2022-09-06T10:36:13.304Z,21.80
2022-09-06T10:40:02.483Z,21.80
2022-09-06T10:43:50.425Z,21.90
2022-09-06T10:47:57.050Z,22.10
2022-09-06T10:51:40.572Z,22.30
2022-09-06T10:55:22.330Z,22.50
2022-09-06T10:59:39.871Z,22.60
2022-09-06T11:12:01.612Z,22.80
2022-09-06T11:15:53.901Z,22.80
2022-09-06T11:19:52.689Z,22.80
2022-09-06T11:23:41.166Z,22.90
2022-09-06T11:27:31.686Z,23.00
2022-09-06T11:35:32.555Z,23.10
2022-09-06T11:39:16.507Z,23.10
2022-09-06T11:43:01.108Z,23.00
2022-09-06T11:46:56.943Z,22.90
2022-09-06T11:51:01.483Z,22.80
2022-09-06T11:54:44.557Z,22.70
2022-09-06T11:58:45.540Z,22.70
2022-09-06T12:02:37.818Z,22.70
2022-09-06T12:06:26.775Z,22.80
2022-09-06T12:10:30.643Z,22.90
2022-09-06T12:14:39.572Z,23.00
2022-09-06T12:18:43.432Z,23.20
2022-09-06T12:22:41.102Z,23.30
2022-09-06T12:26:51.871Z,23.40
2022-09-06T12:30:44.612Z,23.50
2022-09-06T12:34:31.164Z,23.50
2022-09-06T12:38:14.694Z,23.60
2022-09-06T12:42:01.418Z,23.60
2022-09-06T12:45:48.053Z,23.70
2022-09-06T12:49:31.161Z,23.80
2022-09-06T12:53:24.533Z,23.80
2022-09-06T12:57:13.660Z,23.90
2022-09-06T13:00:55.547Z,23.90
2022-09-06T13:04:42.280Z,23.90
2022-09-06T13:08:28.470Z,24.00
2022-09-06T13:12:20.104Z,24.00
2022-09-06T13:16:02.132Z,24.00
2022-09-06T13:19:44.546Z,24.00
2022-09-06T13:23:26.338Z,24.10
2022-09-06T13:27:35.701Z,24.10
2022-09-06T13:31:17.584Z,24.10
2022-09-06T13:34:59.657Z,24.10
2022-09-06T13:38:42.273Z,24.10
2022-09-06T13:42:33.108Z,24.20
2022-09-06T13:46:14.975Z,24.20
2022-09-06T13:49:57.032Z,24.10
2022-09-06T13:53:38.760Z,24.00
2022-09-06T13:57:24.494Z,23.80
2022-09-06T14:01:08.701Z,23.80
2022-09-06T14:04:50.766Z,23.70
2022-09-06T14:08:55.773Z,23.90
2022-09-06T14:12:34.579Z,24.00
2022-09-06T14:16:16.374Z,24.30
2022-09-06T14:19:58.498Z,24.50
2022-09-06T14:23:40.326Z,24.60
2022-09-06T14:27:22.178Z,24.80
2022-09-06T14:31:15.038Z,25.00
2022-09-06T14:34:56.886Z,25.10
2022-09-06T14:38:40.124Z,25.10
2022-09-06T14:42:24.569Z,25.10
2022-09-06T14:46:07.349Z,25.10
2022-09-06T14:49:50.354Z,25.10
2022-09-06T14:53:40.187Z,25.00
2022-09-06T14:57:22.718Z,24.90
2022-09-06T15:01:14.851Z,24.70
2022-09-06T15:04:56.614Z,24.50
2022-09-06T15:08:38.477Z,24.40
2022-09-06T15:12:39.306Z,24.20
2022-09-06T15:16:21.353Z,24.10
2022-09-06T15:20:05.925Z,23.90
2022-09-06T15:23:47.645Z,23.70
2022-09-06T15:27:30.141Z,23.50
2022-09-06T15:31:13.114Z,23.70
2022-09-06T15:34:54.879Z,24.20
2022-09-06T15:38:39.311Z,24.30
2022-09-06T15:42:22.061Z,24.30
2022-09-06T15:46:04.341Z,24.30
2022-09-06T15:49:46.270Z,24.20
2022-09-06T15:53:28.123Z,24.00
2022-09-06T15:57:10.074Z,23.80
2022-09-06T16:01:11.820Z,23.70
2022-09-06T16:04:53.644Z,23.50
2022-09-06T16:08:35.476Z,23.40
2022-09-06T16:12:19.500Z,23.20
2022-09-06T16:16:02.533Z,23.20
2022-09-06T16:19:45.596Z,23.10
2022-09-06T16:23:27.298Z,23.10
2022-09-06T16:27:09.036Z,23.00
2022-09-06T16:30:51.611Z,22.90
2022-09-06T16:34:33.510Z,22.70
2022-09-06T16:38:15.225Z,22.40
2022-09-06T16:41:59.308Z,22.20
2022-09-06T16:45:41.096Z,22.00
2022-09-06T16:49:23.270Z,21.90
2022-09-06T16:53:05.010Z,21.80
2022-09-06T16:56:46.882Z,21.70
2022-09-06T17:00:29.864Z,21.70
2022-09-06T17:04:12.867Z,21.60
2022-09-06T17:07:54.787Z,21.50
2022-09-06T17:11:37.851Z,21.30
2022-09-06T17:15:19.673Z,21.20
2022-09-06T17:19:01.958Z,21.10
2022-09-06T17:22:44.162Z,20.80
2022-09-06T17:26:25.954Z,20.60
2022-09-06T17:30:08.754Z,20.40
2022-09-06T17:33:50.532Z,20.20
2022-09-06T17:37:33.464Z,20.00
2022-09-06T17:41:37.755Z,19.90
2022-09-06T17:45:20.922Z,19.90
2022-09-06T17:49:03.153Z,19.90
2022-09-06T17:52:44.878Z,19.90
2022-09-06T17:56:26.902Z,19.90
2022-09-06T18:00:11.130Z,19.90
2022-09-06T18:03:53.286Z,19.90
2022-09-06T18:07:35.047Z,19.80
2022-09-06T18:11:25.882Z,19.80
2022-09-06T18:15:08.369Z,19.70
2022-09-06T18:18:51.930Z,19.70
2022-09-06T18:22:33.648Z,19.60
2022-09-06T18:26:15.518Z,19.60
2022-09-06T18:29:58.476Z,19.60
2022-09-06T18:33:40.439Z,19.50
2022-09-06T18:37:22.252Z,19.50
2022-09-06T18:41:05.987Z,19.50
2022-09-06T18:44:47.710Z,19.40
2022-09-06T18:48:31.289Z,19.40
2022-09-06T18:52:13.023Z,19.30
2022-09-06T18:55:54.763Z,19.30
2022-09-06T18:59:36.643Z,19.30
2022-09-06T19:03:18.555Z,19.20
2022-09-06T19:07:02.622Z,19.20
2022-09-06T19:10:44.505Z,19.10
2022-09-06T19:14:26.322Z,19.00
2022-09-06T19:18:08.271Z,19.00
2022-09-06T19:21:50.045Z,18.90
2022-09-06T19:25:31.773Z,18.80
2022-09-06T19:29:17.621Z,18.80
2022-09-06T19:32:59.391Z,18.70
2022-09-06T19:36:41.231Z,18.60
2022-09-06T19:40:23.118Z,18.50
2022-09-06T19:44:09.251Z,18.40
2022-09-06T19:47:50.971Z,18.40
2022-09-06T19:51:33.249Z,18.40
2022-09-06T19:55:15.018Z,18.40
2022-09-06T19:58:58.895Z,18.40
2022-09-06T20:02:40.618Z,18.30
2022-09-06T20:06:22.462Z,18.30
2022-09-06T20:10:04.625Z,18.20
2022-09-06T20:13:46.507Z,18.20
2022-09-06T20:17:35.526Z,18.10
2022-09-06T20:21:18.861Z,18.00
2022-09-06T20:25:00.568Z,18.00
2022-09-06T20:28:42.613Z,17.90
2022-09-06T20:32:25.547Z,17.90
2022-09-06T20:36:08.138Z,17.90
2022-09-06T20:39:51.113Z,17.90
2022-09-06T20:43:35.195Z,17.80
2022-09-06T20:47:17.007Z,17.90
2022-09-06T20:51:00.178Z,17.90
2022-09-06T20:54:42.130Z,17.90
2022-09-06T20:58:24.283Z,17.90
2022-09-06T21:02:07.627Z,17.90
2022-09-06T21:05:49.532Z,17.80
2022-09-06T21:09:32.503Z,17.80
2022-09-06T21:13:14.273Z,17.80
2022-09-06T21:16:56.204Z,17.70
2022-09-06T21:20:38.162Z,17.70
2022-09-06T21:24:19.938Z,17.60
2022-09-06T21:28:01.707Z,17.60
2022-09-06T21:31:45.947Z,17.60
2022-09-06T21:35:27.709Z,17.60
2022-09-06T21:39:10.716Z,17.60
2022-09-06T21:42:52.874Z,17.70
2022-09-06T21:46:36.767Z,17.70
2022-09-06T21:50:18.725Z,17.70
2022-09-06T21:54:03.529Z,17.70
2022-09-06T21:57:45.297Z,17.80
2022-09-06T22:01:31.855Z,17.80
2022-09-06T22:05:13.918Z,17.80
2022-09-06T22:08:57.626Z,17.80
2022-09-06T22:12:41.760Z,17.80
2022-09-06T22:16:24.742Z,17.80
2022-09-06T22:20:09.625Z,17.90
2022-09-06T22:23:59.496Z,17.90
2022-09-06T22:27:41.402Z,17.90
2022-09-06T22:31:24.902Z,17.90
2022-09-06T22:35:07.000Z,17.90
2022-09-06T22:38:48.752Z,17.90
2022-09-06T22:42:30.844Z,17.90
2022-09-06T22:46:12.963Z,17.90
2022-09-06T22:49:56.378Z,17.90
2022-09-06T22:53:38.229Z,18.00
2022-09-06T22:57:20.043Z,18.00
2022-09-06T23:01:09.320Z,17.90
2022-09-06T23:04:51.531Z,18.00
2022-09-06T23:08:34.811Z,17.90
2022-09-06T23:12:17.661Z,17.90
2022-09-06T23:16:14.709Z,17.80
2022-09-06T23:19:56.641Z,17.80
2022-09-06T23:23:38.479Z,17.80
2022-09-06T23:27:20.194Z,17.80
2022-09-06T23:31:03.674Z,17.80
2022-09-06T23:34:45.446Z,17.70
2022-09-06T23:38:27.248Z,17.70
2022-09-06T23:42:09.465Z,17.60
2022-09-06T23:45:51.363Z,17.60
2022-09-06T23:49:33.197Z,17.60
2022-09-06T23:53:15.800Z,17.60
2022-09-06T23:56:57.791Z,17.60
